Terminal Aerodrome Forecast
Issued by NWS Salt Lake City, UT

Home | Current Version | Previous Version | Text Only | Print | Product List | Glossary On
Versions: 1 2 3 4 5 6 7 8 9 10 11 12 13 14 15 16 17 18 19 20 21 22 23 24 25 26
000
FTUS45 KSLC 272329
TAFCDC
TAF
KCDC 272329Z 2800/2824 21007KT P6SM SCT050 BKN080
     FM280700 VRB04KT 1SM -SN SCT010 BKN020
     FM281400 19007KT 3SM -SHSN SCT015 BKN025=

USA.gov is the U.S. government's official web portal to all federal, state and local government web resources and services.